createdAt,value
2022-08-26T00:14:46.199Z,610
2022-08-26T00:35:02.243Z,609
2022-08-26T00:54:54.280Z,607
2022-08-26T01:14:54.317Z,606
2022-08-26T01:54:50.408Z,604
2022-08-26T02:14:46.597Z,604
2022-08-26T02:35:02.500Z,603
2022-08-26T02:54:46.539Z,604
2022-08-26T03:15:02.683Z,607
2022-08-26T03:34:54.612Z,605
2022-08-26T03:54:54.673Z,604
2022-08-26T04:14:54.705Z,605
2022-08-26T04:34:46.731Z,607
2022-08-26T04:54:46.793Z,608
2022-08-26T05:14:46.828Z,607
2022-08-26T05:34:46.865Z,608
2022-08-26T05:55:02.909Z,620
2022-08-26T06:14:54.984Z,630
2022-08-26T06:34:47.003Z,627
2022-08-26T07:14:47.371Z,625
2022-08-26T07:34:47.213Z,624
2022-08-26T09:34:47.350Z,616
2022-08-26T10:34:47.478Z,621
2022-08-26T11:14:53.833Z,613
2022-08-26T11:54:47.654Z,618
2022-08-26T12:14:47.673Z,616
2022-08-26T12:34:47.713Z,608
2022-08-26T14:54:47.988Z,613
2022-08-26T15:14:48.005Z,613
2022-08-26T15:34:48.045Z,606
2022-08-26T15:54:56.189Z,603
2022-08-26T16:15:04.228Z,608
2022-08-26T16:34:55.252Z,618
2022-08-26T16:54:48.198Z,613
2022-08-26T17:14:48.245Z,608
2022-08-26T17:34:48.276Z,605
2022-08-26T18:34:56.397Z,603
2022-08-26T18:54:48.443Z,599
2022-08-26T19:34:48.514Z,605
2022-08-26T21:14:56.861Z,604
2022-08-26T21:54:49.227Z,598
2022-08-26T22:14:48.851Z,594
2022-08-26T22:34:48.885Z,600
2022-08-26T22:54:48.930Z,610
2022-08-26T23:14:48.975Z,608
2022-08-26T23:34:49.001Z,606
2022-08-26T23:54:57.059Z,608
